sensor_id;sensor_type;location;lat;lon;timestamp;noise_LAeq;noise_LA_min;noise_LA_max;noise_LA01;noise_LA95
76261;Laerm;65076;52.362;6.588;2023-01-16T00:01:59;36.26;31.74;51.32;;
76261;Laerm;65076;52.362;6.588;2023-01-16T00:04:27;36.64;32.47;44.73;;
76261;Laerm;65076;52.362;6.588;2023-01-16T00:06:55;36.17;32.55;43.67;;
76261;Laerm;65076;52.362;6.588;2023-01-16T00:09:24;35.91;31.87;42.56;;
76261;Laerm;65076;52.362;6.588;2023-01-16T00:11:51;43.61;31.52;60.27;;
76261;Laerm;65076;52.362;6.588;2023-01-16T00:14:21;35.49;31.85;41.28;;
76261;Laerm;65076;52.362;6.588;2023-01-16T00:16:48;35.42;31.76;42.53;;
76261;Laerm;65076;52.362;6.588;2023-01-16T00:19:16;35.38;32.09;41.18;;
76261;Laerm;65076;52.362;6.588;2023-01-16T00:21:44;35.29;31.89;39.85;;
76261;Laerm;65076;52.362;6.588;2023-01-16T00:24:14;35.99;32.30;44.94;;
76261;Laerm;65076;52.362;6.588;2023-01-16T00:26:42;34.87;32.31;38.18;;
76261;Laerm;65076;52.362;6.588;2023-01-16T00:29:09;34.94;32.22;38.77;;
76261;Laerm;65076;52.362;6.588;2023-01-16T00:31:39;35.48;32.31;44.86;;
76261;Laerm;65076;52.362;6.588;2023-01-16T00:34:07;34.64;31.75;38.18;;
76261;Laerm;65076;52.362;6.588;2023-01-16T00:36:37;35.27;31.40;41.47;;
76261;Laerm;65076;52.362;6.588;2023-01-16T00:39:05;35.33;31.06;43.84;;
76261;Laerm;65076;52.362;6.588;2023-01-16T00:41:34;35.10;31.52;43.69;;
76261;Laerm;65076;52.362;6.588;2023-01-16T00:44:01;34.85;31.32;41.17;;
76261;Laerm;65076;52.362;6.588;2023-01-16T00:46:29;47.58;31.52;65.41;;
76261;Laerm;65076;52.362;6.588;2023-01-16T00:48:59;34.73;31.55;45.28;;
76261;Laerm;65076;52.362;6.588;2023-01-16T00:51:26;34.64;30.83;37.65;;
76261;Laerm;65076;52.362;6.588;2023-01-16T00:53:54;38.10;32.12;49.89;;
76261;Laerm;65076;52.362;6.588;2023-01-16T00:56:22;34.73;32.00;38.50;;
76261;Laerm;65076;52.362;6.588;2023-01-16T00:58:50;35.60;32.50;43.50;;
76261;Laerm;65076;52.362;6.588;2023-01-16T01:01:18;35.96;31.84;45.82;;
76261;Laerm;65076;52.362;6.588;2023-01-16T01:03:46;34.15;31.39;38.35;;
76261;Laerm;65076;52.362;6.588;2023-01-16T01:06:16;34.38;31.26;38.42;;
76261;Laerm;65076;52.362;6.588;2023-01-16T01:08:44;34.75;32.10;38.18;;
76261;Laerm;65076;52.362;6.588;2023-01-16T01:11:14;35.10;31.10;42.74;;
76261;Laerm;65076;52.362;6.588;2023-01-16T01:13:42;35.45;32.81;39.46;;
76261;Laerm;65076;52.362;6.588;2023-01-16T01:16:11;34.76;31.31;40.42;;
76261;Laerm;65076;52.362;6.588;2023-01-16T01:18:39;35.44;31.79;39.99;;
76261;Laerm;65076;52.362;6.588;2023-01-16T01:21:08;34.80;31.38;40.06;;
76261;Laerm;65076;52.362;6.588;2023-01-16T01:23:37;34.67;30.92;39.40;;
76261;Laerm;65076;52.362;6.588;2023-01-16T01:26:07;35.74;31.94;48.43;;
76261;Laerm;65076;52.362;6.588;2023-01-16T01:28:35;35.24;31.89;50.12;;
76261;Laerm;65076;52.362;6.588;2023-01-16T01:31:04;35.68;30.49;50.64;;
76261;Laerm;65076;52.362;6.588;2023-01-16T01:33:33;35.49;31.66;49.24;;
76261;Laerm;65076;52.362;6.588;2023-01-16T01:36:02;35.00;31.63;37.94;;
76261;Laerm;65076;52.362;6.588;2023-01-16T01:38:30;34.85;30.74;46.30;;
76261;Laerm;65076;52.362;6.588;2023-01-16T01:41:00;35.18;31.10;50.51;;
76261;Laerm;65076;52.362;6.588;2023-01-16T01:43:41;44.69;31.52;65.59;;
76261;Laerm;65076;52.362;6.588;2023-01-16T01:46:21;34.52;30.91;45.70;;
76261;Laerm;65076;52.362;6.588;2023-01-16T01:48:57;34.14;30.26;40.83;;
76261;Laerm;65076;52.362;6.588;2023-01-16T01:51:31;34.50;30.73;37.83;;
76261;Laerm;65076;52.362;6.588;2023-01-16T01:54:06;35.44;30.80;44.10;;
76261;Laerm;65076;52.362;6.588;2023-01-16T01:56:42;34.78;30.99;42.97;;
76261;Laerm;65076;52.362;6.588;2023-01-16T01:59:19;34.31;30.63;38.79;;
76261;Laerm;65076;52.362;6.588;2023-01-16T02:01:49;38.36;31.71;63.33;;
76261;Laerm;65076;52.362;6.588;2023-01-16T02:04:23;35.75;31.36;60.42;;
76261;Laerm;65076;52.362;6.588;2023-01-16T02:06:55;34.55;31.22;40.78;;
76261;Laerm;65076;52.362;6.588;2023-01-16T02:09:25;34.57;31.29;41.86;;
76261;Laerm;65076;52.362;6.588;2023-01-16T02:11:58;36.97;30.91;53.69;;
76261;Laerm;65076;52.362;6.588;2023-01-16T02:14:33;34.92;31.27;40.37;;
76261;Laerm;65076;52.362;6.588;2023-01-16T02:17:07;35.40;31.52;42.62;;
76261;Laerm;65076;52.362;6.588;2023-01-16T02:20:14;34.94;31.71;46.52;;
76261;Laerm;65076;52.362;6.588;2023-01-16T02:23:48;34.73;30.98;39.18;;
76261;Laerm;65076;52.362;6.588;2023-01-16T02:26:47;40.96;31.73;60.56;;
76261;Laerm;65076;52.362;6.588;2023-01-16T02:30:15;34.95;31.47;38.43;;
76261;Laerm;65076;52.362;6.588;2023-01-16T02:33:03;35.60;31.35;42.10;;
76261;Laerm;65076;52.362;6.588;2023-01-16T02:35:51;34.33;31.35;38.36;;
76261;Laerm;65076;52.362;6.588;2023-01-16T02:38:35;33.95;30.66;40.46;;
76261;Laerm;65076;52.362;6.588;2023-01-16T02:41:17;41.26;30.37;57.24;;
76261;Laerm;65076;52.362;6.588;2023-01-16T02:43:56;35.69;31.30;54.26;;
76261;Laerm;65076;52.362;6.588;2023-01-16T02:46:32;34.78;31.35;45.55;;
76261;Laerm;65076;52.362;6.588;2023-01-16T02:49:10;35.04;30.77;52.01;;
76261;Laerm;65076;52.362;6.588;2023-01-16T02:51:50;36.71;32.67;53.57;;
76261;Laerm;65076;52.362;6.588;2023-01-16T02:54:32;38.24;31.42;59.67;;
76261;Laerm;65076;52.362;6.588;2023-01-16T02:57:09;36.45;31.75;46.77;;
76261;Laerm;65076;52.362;6.588;2023-01-16T02:59:40;36.19;32.24;48.24;;
76261;Laerm;65076;52.362;6.588;2023-01-16T03:02:09;36.90;31.87;53.39;;
76261;Laerm;65076;52.362;6.588;2023-01-16T03:04:44;43.71;31.96;71.85;;
76261;Laerm;65076;52.362;6.588;2023-01-16T03:07:42;49.93;35.81;69.40;;
76261;Laerm;65076;52.362;6.588;2023-01-16T03:10:39;43.94;32.85;61.09;;
76261;Laerm;65076;52.362;6.588;2023-01-16T03:13:22;50.28;32.71;68.51;;
76261;Laerm;65076;52.362;6.588;2023-01-16T03:16:01;36.81;32.67;45.88;;
76261;Laerm;65076;52.362;6.588;2023-01-16T03:18:40;40.62;32.94;55.84;;
76261;Laerm;65076;52.362;6.588;2023-01-16T03:21:17;37.54;32.91;50.18;;
76261;Laerm;65076;52.362;6.588;2023-01-16T03:23:53;41.89;33.09;53.77;;
76261;Laerm;65076;52.362;6.588;2023-01-16T03:26:28;36.34;33.54;43.56;;
76261;Laerm;65076;52.362;6.588;2023-01-16T03:29:08;48.33;33.39;62.43;;
76261;Laerm;65076;52.362;6.588;2023-01-16T03:31:47;37.04;33.61;45.42;;
76261;Laerm;65076;52.362;6.588;2023-01-16T03:34:25;37.35;34.15;45.31;;
76261;Laerm;65076;52.362;6.588;2023-01-16T03:37:05;39.68;33.93;63.48;;
76261;Laerm;65076;52.362;6.588;2023-01-16T03:39:41;49.37;34.29;65.53;;
76261;Laerm;65076;52.362;6.588;2023-01-16T03:42:15;46.49;34.70;64.09;;
76261;Laerm;65076;52.362;6.588;2023-01-16T03:44:51;42.53;35.11;54.58;;
76261;Laerm;65076;52.362;6.588;2023-01-16T03:47:27;38.68;34.51;56.73;;
76261;Laerm;65076;52.362;6.588;2023-01-16T03:50:02;37.73;33.99;50.76;;
76261;Laerm;65076;52.362;6.588;2023-01-16T03:52:39;49.45;34.02;67.25;;
76261;Laerm;65076;52.362;6.588;2023-01-16T03:55:16;38.02;34.59;53.53;;
76261;Laerm;65076;52.362;6.588;2023-01-16T03:57:51;48.09;34.74;65.92;;
76261;Laerm;65076;52.362;6.588;2023-01-16T04:00:26;51.06;36.16;65.50;;
76261;Laerm;65076;52.362;6.588;2023-01-16T04:03:04;48.88;34.98;62.30;;
76261;Laerm;65076;52.362;6.588;2023-01-16T04:05:42;46.00;34.25;64.05;;
76261;Laerm;65076;52.362;6.588;2023-01-16T04:08:22;50.53;35.35;65.90;;
76261;Laerm;65076;52.362;6.588;2023-01-16T04:10:53;55.63;35.31;75.08;;
76261;Laerm;65076;52.362;6.588;2023-01-16T04:13:27;47.65;36.40;63.90;;
76261;Laerm;65076;52.362;6.588;2023-01-16T04:15:59;53.59;35.93;69.28;;
76261;Laerm;65076;52.362;6.588;2023-01-16T04:18:32;51.40;34.77;70.76;;
76261;Laerm;65076;52.362;6.588;2023-01-16T04:21:04;41.48;35.37;62.29;;
76261;Laerm;65076;52.362;6.588;2023-01-16T04:23:33;49.74;36.53;64.21;;
76261;Laerm;65076;52.362;6.588;2023-01-16T04:26:01;41.23;36.18;54.50;;
76261;Laerm;65076;52.362;6.588;2023-01-16T04:28:29;46.13;35.52;61.52;;
76261;Laerm;65076;52.362;6.588;2023-01-16T04:30:57;42.17;37.08;51.32;;
76261;Laerm;65076;52.362;6.588;2023-01-16T04:33:25;52.78;36.44;63.53;;
76261;Laerm;65076;52.362;6.588;2023-01-16T04:35:53;46.35;38.11;57.77;;
76261;Laerm;65076;52.362;6.588;2023-01-16T04:38:21;58.54;38.31;80.36;;
76261;Laerm;65076;52.362;6.588;2023-01-16T04:40:53;60.63;42.60;78.88;;
76261;Laerm;65076;52.362;6.588;2023-01-16T04:43:21;49.86;44.32;64.22;;
76261;Laerm;65076;52.362;6.588;2023-01-16T04:45:49;51.44;39.61;67.37;;
76261;Laerm;65076;52.362;6.588;2023-01-16T04:48:17;46.65;38.11;58.13;;
76261;Laerm;65076;52.362;6.588;2023-01-16T04:50:47;47.07;38.66;57.76;;
76261;Laerm;65076;52.362;6.588;2023-01-16T04:53:16;52.51;38.07;66.53;;
76261;Laerm;65076;52.362;6.588;2023-01-16T04:55:43;50.22;40.35;63.25;;
76261;Laerm;65076;52.362;6.588;2023-01-16T04:58:13;47.32;39.68;62.10;;
76261;Laerm;65076;52.362;6.588;2023-01-16T05:00:41;53.56;38.89;72.41;;
76261;Laerm;65076;52.362;6.588;2023-01-16T05:03:08;48.85;39.91;64.18;;
76261;Laerm;65076;52.362;6.588;2023-01-16T05:05:38;44.74;40.53;51.91;;
76261;Laerm;65076;52.362;6.588;2023-01-16T05:08:06;58.44;40.32;76.60;;
76261;Laerm;65076;52.362;6.588;2023-01-16T05:10:43;60.96;41.07;76.55;;
76261;Laerm;65076;52.362;6.588;2023-01-16T05:13:12;50.86;41.85;63.46;;
76261;Laerm;65076;52.362;6.588;2023-01-16T05:15:42;51.69;41.33;63.12;;
76261;Laerm;65076;52.362;6.588;2023-01-16T05:18:11;50.76;42.05;65.78;;
76261;Laerm;65076;52.362;6.588;2023-01-16T05:20:39;52.06;42.17;64.82;;
76261;Laerm;65076;52.362;6.588;2023-01-16T05:23:07;54.43;41.87;64.48;;
76261;Laerm;65076;52.362;6.588;2023-01-16T05:25:36;52.33;42.51;66.57;;
76261;Laerm;65076;52.362;6.588;2023-01-16T05:28:04;52.14;43.38;65.00;;
76261;Laerm;65076;52.362;6.588;2023-01-16T05:30:34;53.98;43.13;72.26;;
76261;Laerm;65076;52.362;6.588;2023-01-16T05:33:02;53.86;42.75;66.63;;
76261;Laerm;65076;52.362;6.588;2023-01-16T05:35:31;50.43;43.69;63.66;;
76261;Laerm;65076;52.362;6.588;2023-01-16T05:37:59;51.21;43.66;63.19;;
76261;Laerm;65076;52.362;6.588;2023-01-16T05:40:26;61.68;43.23;77.52;;
76261;Laerm;65076;52.362;6.588;2023-01-16T05:42:54;49.11;43.51;58.29;;
76261;Laerm;65076;52.362;6.588;2023-01-16T05:45:22;54.43;44.63;66.92;;
76261;Laerm;65076;52.362;6.588;2023-01-16T05:47:52;67.71;44.82;79.72;;
76261;Laerm;65076;52.362;6.588;2023-01-16T05:50:20;54.24;44.50;67.67;;
76261;Laerm;65076;52.362;6.588;2023-01-16T05:52:48;54.40;46.67;66.54;;
76261;Laerm;65076;52.362;6.588;2023-01-16T05:55:16;51.12;44.09;65.76;;
76261;Laerm;65076;52.362;6.588;2023-01-16T05:57:44;52.89;42.29;64.17;;
76261;Laerm;65076;52.362;6.588;2023-01-16T06:00:13;55.17;44.88;72.22;;
76261;Laerm;65076;52.362;6.588;2023-01-16T06:02:41;55.52;43.81;67.04;;
76261;Laerm;65076;52.362;6.588;2023-01-16T06:05:11;57.60;45.37;71.15;;
76261;Laerm;65076;52.362;6.588;2023-01-16T06:07:39;55.83;44.67;70.63;;
76261;Laerm;65076;52.362;6.588;2023-01-16T06:10:09;52.87;45.94;64.06;;
76261;Laerm;65076;52.362;6.588;2023-01-16T06:12:38;60.53;47.96;76.03;;
76261;Laerm;65076;52.362;6.588;2023-01-16T06:15:07;55.30;44.99;68.33;;
76261;Laerm;65076;52.362;6.588;2023-01-16T06:17:35;56.78;46.82;68.23;;
76261;Laerm;65076;52.362;6.588;2023-01-16T06:20:04;57.03;45.95;66.21;;
76261;Laerm;65076;52.362;6.588;2023-01-16T06:22:33;62.37;45.67;77.41;;
76261;Laerm;65076;52.362;6.588;2023-01-16T06:25:01;58.50;46.35;69.95;;
76261;Laerm;65076;52.362;6.588;2023-01-16T06:27:30;63.08;45.39;79.25;;
76261;Laerm;65076;52.362;6.588;2023-01-16T06:29:59;57.09;46.82;65.72;;
76261;Laerm;65076;52.362;6.588;2023-01-16T06:32:26;56.90;47.94;71.64;;
76261;Laerm;65076;52.362;6.588;2023-01-16T06:34:54;57.48;48.73;68.50;;
76261;Laerm;65076;52.362;6.588;2023-01-16T06:37:22;61.13;47.77;77.46;;
76261;Laerm;65076;52.362;6.588;2023-01-16T06:39:51;59.26;46.87;76.16;;
76261;Laerm;65076;52.362;6.588;2023-01-16T06:42:20;61.75;48.85;77.49;;
76261;Laerm;65076;52.362;6.588;2023-01-16T06:44:48;57.30;46.38;68.22;;
76261;Laerm;65076;52.362;6.588;2023-01-16T06:47:16;61.06;49.19;69.53;;
76261;Laerm;65076;52.362;6.588;2023-01-16T06:49:44;57.98;46.94;69.45;;
76261;Laerm;65076;52.362;6.588;2023-01-16T06:52:12;60.17;46.07;74.45;;
76261;Laerm;65076;52.362;6.588;2023-01-16T06:54:40;58.46;47.16;73.44;;
76261;Laerm;65076;52.362;6.588;2023-01-16T06:57:09;57.26;46.37;67.76;;
76261;Laerm;65076;52.362;6.588;2023-01-16T06:59:37;57.75;47.10;71.83;;
76261;Laerm;65076;52.362;6.588;2023-01-16T07:02:05;57.38;46.39;65.91;;
76261;Laerm;65076;52.362;6.588;2023-01-16T07:04:33;54.00;44.06;64.74;;
76261;Laerm;65076;52.362;6.588;2023-01-16T07:07:01;54.55;45.19;63.64;;
76261;Laerm;65076;52.362;6.588;2023-01-16T07:09:29;57.36;47.94;73.98;;
76261;Laerm;65076;52.362;6.588;2023-01-16T07:11:58;62.26;46.03;77.31;;
76261;Laerm;65076;52.362;6.588;2023-01-16T07:14:28;65.71;48.85;79.41;;
76261;Laerm;65076;52.362;6.588;2023-01-16T07:17:14;65.20;47.98;80.15;;
76261;Laerm;65076;52.362;6.588;2023-01-16T07:20:00;67.94;48.65;82.50;;
76261;Laerm;65076;52.362;6.588;2023-01-16T07:22:46;56.32;46.61;66.82;;
76261;Laerm;65076;52.362;6.588;2023-01-16T07:25:19;56.46;47.63;68.14;;
76261;Laerm;65076;52.362;6.588;2023-01-16T07:27:50;59.95;48.13;75.76;;
76261;Laerm;65076;52.362;6.588;2023-01-16T07:30:21;57.03;46.89;73.06;;
76261;Laerm;65076;52.362;6.588;2023-01-16T07:32:50;56.72;46.19;65.14;;
76261;Laerm;65076;52.362;6.588;2023-01-16T07:35:18;56.54;45.56;69.15;;
76261;Laerm;65076;52.362;6.588;2023-01-16T07:37:46;61.12;46.47;79.26;;
76261;Laerm;65076;52.362;6.588;2023-01-16T07:40:14;52.24;45.26;63.54;;
76261;Laerm;65076;52.362;6.588;2023-01-16T07:42:53;58.89;46.12;74.15;;
76261;Laerm;65076;52.362;6.588;2023-01-16T07:45:30;63.83;45.68;76.46;;
76261;Laerm;65076;52.362;6.588;2023-01-16T07:47:58;59.59;45.85;75.69;;
76261;Laerm;65076;52.362;6.588;2023-01-16T07:50:29;60.67;45.42;75.77;;
76261;Laerm;65076;52.362;6.588;2023-01-16T07:52:57;55.57;45.75;67.64;;
76261;Laerm;65076;52.362;6.588;2023-01-16T07:55:25;57.10;46.54;68.25;;
76261;Laerm;65076;52.362;6.588;2023-01-16T07:57:53;55.86;48.12;65.90;;
76261;Laerm;65076;52.362;6.588;2023-01-16T08:00:21;56.53;47.02;73.35;;
76261;Laerm;65076;52.362;6.588;2023-01-16T08:02:50;56.18;44.87;68.43;;
76261;Laerm;65076;52.362;6.588;2023-01-16T08:05:18;55.55;45.52;65.87;;
76261;Laerm;65076;52.362;6.588;2023-01-16T08:07:46;55.04;44.92;75.21;;
76261;Laerm;65076;52.362;6.588;2023-01-16T08:10:16;59.78;44.73;75.62;;
76261;Laerm;65076;52.362;6.588;2023-01-16T08:12:44;59.31;47.44;75.22;;
76261;Laerm;65076;52.362;6.588;2023-01-16T08:15:12;53.62;45.77;66.44;;
76261;Laerm;65076;52.362;6.588;2023-01-16T08:17:40;59.53;46.92;68.79;;
76261;Laerm;65076;52.362;6.588;2023-01-16T08:20:11;63.45;45.91;78.26;;
76261;Laerm;65076;52.362;6.588;2023-01-16T08:22:44;60.26;48.59;75.69;;
76261;Laerm;65076;52.362;6.588;2023-01-16T08:25:14;58.58;45.24;77.74;;
76261;Laerm;65076;52.362;6.588;2023-01-16T08:27:42;57.41;44.71;79.20;;
76261;Laerm;65076;52.362;6.588;2023-01-16T08:30:12;59.69;47.70;78.97;;
76261;Laerm;65076;52.362;6.588;2023-01-16T08:32:41;59.97;46.68;83.17;;
76261;Laerm;65076;52.362;6.588;2023-01-16T08:35:11;56.06;44.65;81.64;;
76261;Laerm;65076;52.362;6.588;2023-01-16T08:37:47;58.04;44.32;80.21;;
76261;Laerm;65076;52.362;6.588;2023-01-16T08:40:16;61.66;44.07;82.79;;
76261;Laerm;65076;52.362;6.588;2023-01-16T08:42:44;60.31;46.51;81.50;;
76261;Laerm;65076;52.362;6.588;2023-01-16T08:45:30;58.06;45.12;83.61;;
76261;Laerm;65076;52.362;6.588;2023-01-16T08:48:23;59.26;45.03;81.77;;
76261;Laerm;65076;52.362;6.588;2023-01-16T08:51:15;58.34;43.71;81.94;;
76261;Laerm;65076;52.362;6.588;2023-01-16T08:53:49;61.51;45.48;84.52;;
76261;Laerm;65076;52.362;6.588;2023-01-16T08:56:18;60.35;45.97;82.57;;
76261;Laerm;65076;52.362;6.588;2023-01-16T08:58:46;58.94;45.73;81.28;;
76261;Laerm;65076;52.362;6.588;2023-01-16T09:01:14;58.27;45.31;82.51;;
76261;Laerm;65076;52.362;6.588;2023-01-16T09:03:42;60.51;45.20;81.77;;
76261;Laerm;65076;52.362;6.588;2023-01-16T09:06:12;57.23;45.63;82.11;;
76261;Laerm;65076;52.362;6.588;2023-01-16T09:08:39;60.56;45.84;83.20;;
76261;Laerm;65076;52.362;6.588;2023-01-16T09:11:07;59.56;45.40;82.82;;
76261;Laerm;65076;52.362;6.588;2023-01-16T09:13:53;62.53;49.88;80.61;;
76261;Laerm;65076;52.362;6.588;2023-01-16T09:16:26;61.24;49.47;86.64;;
76261;Laerm;65076;52.362;6.588;2023-01-16T09:18:55;62.90;49.20;80.06;;
76261;Laerm;65076;52.362;6.588;2023-01-16T09:21:24;62.83;49.33;82.80;;
76261;Laerm;65076;52.362;6.588;2023-01-16T09:23:52;64.77;49.66;84.37;;
76261;Laerm;65076;52.362;6.588;2023-01-16T09:26:20;61.10;45.96;83.18;;
76261;Laerm;65076;52.362;6.588;2023-01-16T09:28:48;58.50;47.10;80.33;;
76261;Laerm;65076;52.362;6.588;2023-01-16T09:31:16;60.73;49.31;83.31;;
76261;Laerm;65076;52.362;6.588;2023-01-16T09:33:45;59.82;45.33;82.51;;
76261;Laerm;65076;52.362;6.588;2023-01-16T09:36:14;61.35;44.86;82.97;;
76261;Laerm;65076;52.362;6.588;2023-01-16T09:38:45;61.34;45.67;83.17;;
76261;Laerm;65076;52.362;6.588;2023-01-16T09:41:16;64.86;47.19;80.75;;
76261;Laerm;65076;52.362;6.588;2023-01-16T09:44:11;61.73;46.73;83.19;;
76261;Laerm;65076;52.362;6.588;2023-01-16T09:46:45;59.64;49.01;82.63;;
76261;Laerm;65076;52.362;6.588;2023-01-16T09:49:21;61.92;46.82;78.79;;
76261;Laerm;65076;52.362;6.588;2023-01-16T09:51:54;61.03;47.43;83.19;;
76261;Laerm;65076;52.362;6.588;2023-01-16T09:54:52;60.00;47.58;80.18;;
76261;Laerm;65076;52.362;6.588;2023-01-16T09:57:41;57.79;45.89;79.66;;
76261;Laerm;65076;52.362;6.588;2023-01-16T10:00:31;60.45;48.23;78.39;;
76261;Laerm;65076;52.362;6.588;2023-01-16T10:03:03;59.06;44.66;83.25;;
76261;Laerm;65076;52.362;6.588;2023-01-16T10:05:42;57.93;45.53;83.52;;
76261;Laerm;65076;52.362;6.588;2023-01-16T10:08:24;60.22;47.60;83.49;;
76261;Laerm;65076;52.362;6.588;2023-01-16T10:11:09;60.71;46.33;82.80;;
76261;Laerm;65076;52.362;6.588;2023-01-16T10:14:04;61.65;47.00;77.87;;
76261;Laerm;65076;52.362;6.588;2023-01-16T10:16:54;57.68;46.28;82.91;;
76261;Laerm;65076;52.362;6.588;2023-01-16T10:19:43;63.91;46.47;84.08;;
76261;Laerm;65076;52.362;6.588;2023-01-16T10:22:35;60.73;45.23;84.77;;
76261;Laerm;65076;52.362;6.588;2023-01-16T10:25:21;57.63;45.54;80.33;;
76261;Laerm;65076;52.362;6.588;2023-01-16T10:28:07;59.34;48.02;83.41;;
76261;Laerm;65076;52.362;6.588;2023-01-16T10:30:48;60.06;45.26;81.72;;
76261;Laerm;65076;52.362;6.588;2023-01-16T10:33:29;57.76;44.73;84.59;;
76261;Laerm;65076;52.362;6.588;2023-01-16T10:36:14;60.50;47.88;84.32;;
76261;Laerm;65076;52.362;6.588;2023-01-16T10:38:47;61.06;48.74;82.54;;
76261;Laerm;65076;52.362;6.588;2023-01-16T10:41:23;61.32;44.96;82.64;;
76261;Laerm;65076;52.362;6.588;2023-01-16T10:44:22;59.35;47.28;83.15;;
76261;Laerm;65076;52.362;6.588;2023-01-16T10:47:12;59.98;45.58;83.84;;
76261;Laerm;65076;52.362;6.588;2023-01-16T10:49:58;62.30;47.40;82.62;;
76261;Laerm;65076;52.362;6.588;2023-01-16T10:52:27;62.58;47.66;82.95;;
76261;Laerm;65076;52.362;6.588;2023-01-16T10:54:57;60.45;46.12;81.80;;
76261;Laerm;65076;52.362;6.588;2023-01-16T10:57:27;59.96;46.55;80.03;;
76261;Laerm;65076;52.362;6.588;2023-01-16T11:00:02;59.58;46.59;82.71;;
76261;Laerm;65076;52.362;6.588;2023-01-16T11:02:36;60.87;46.30;83.15;;
76261;Laerm;65076;52.362;6.588;2023-01-16T11:05:26;59.85;46.70;82.09;;
76261;Laerm;65076;52.362;6.588;2023-01-16T11:08:01;58.93;49.96;83.77;;
76261;Laerm;65076;52.362;6.588;2023-01-16T11:10:29;67.92;48.44;83.13;;
76261;Laerm;65076;52.362;6.588;2023-01-16T11:12:57;60.25;45.58;82.50;;
76261;Laerm;65076;52.362;6.588;2023-01-16T11:18:40;60.34;45.61;83.67;;
76261;Laerm;65076;52.362;6.588;2023-01-16T11:21:16;61.89;46.59;81.95;;
76261;Laerm;65076;52.362;6.588;2023-01-16T11:23:48;57.81;44.90;79.58;;
76261;Laerm;65076;52.362;6.588;2023-01-16T11:26:17;58.48;45.54;83.47;;
76261;Laerm;65076;52.362;6.588;2023-01-16T11:28:58;57.84;46.30;81.38;;
76261;Laerm;65076;52.362;6.588;2023-01-16T11:31:28;60.96;48.41;81.85;;
76261;Laerm;65076;52.362;6.588;2023-01-16T11:34:02;58.60;45.71;81.78;;
76261;Laerm;65076;52.362;6.588;2023-01-16T11:36:34;60.26;46.80;83.64;;
76261;Laerm;65076;52.362;6.588;2023-01-16T11:39:04;63.94;46.67;83.58;;
76261;Laerm;65076;52.362;6.588;2023-01-16T11:41:36;59.97;44.53;83.55;;
76261;Laerm;65076;52.362;6.588;2023-01-16T11:44:18;61.00;46.34;82.83;;
76261;Laerm;65076;52.362;6.588;2023-01-16T11:47:04;59.41;44.49;83.49;;
76261;Laerm;65076;52.362;6.588;2023-01-16T11:49:38;66.86;47.79;77.74;;
76261;Laerm;65076;52.362;6.588;2023-01-16T11:52:13;61.13;45.42;84.06;;
76261;Laerm;65076;52.362;6.588;2023-01-16T11:54:55;57.46;46.89;81.62;;
76261;Laerm;65076;52.362;6.588;2023-01-16T11:57:43;60.30;45.44;77.30;;
76261;Laerm;65076;52.362;6.588;2023-01-16T12:00:45;57.26;45.36;81.33;;
76261;Laerm;65076;52.362;6.588;2023-01-16T12:04:02;56.82;43.68;80.57;;
76261;Laerm;65076;52.362;6.588;2023-01-16T12:06:47;56.65;43.75;75.32;;
76261;Laerm;65076;52.362;6.588;2023-01-16T12:09:46;62.17;47.59;83.00;;
76261;Laerm;65076;52.362;6.588;2023-01-16T12:12:32;63.68;46.27;82.67;;
76261;Laerm;65076;52.362;6.588;2023-01-16T12:15:28;57.78;44.69;78.72;;
76261;Laerm;65076;52.362;6.588;2023-01-16T12:18:14;67.44;46.42;82.39;;
76261;Laerm;65076;52.362;6.588;2023-01-16T12:20:56;62.43;44.64;79.01;;
76261;Laerm;65076;52.362;6.588;2023-01-16T12:23:40;59.67;45.98;80.59;;
76261;Laerm;65076;52.362;6.588;2023-01-16T12:26:28;59.52;45.86;81.28;;
76261;Laerm;65076;52.362;6.588;2023-01-16T12:29:14;63.07;46.39;83.18;;
76261;Laerm;65076;52.362;6.588;2023-01-16T12:32:16;60.95;48.78;83.45;;
76261;Laerm;65076;52.362;6.588;2023-01-16T12:35:21;58.60;46.36;80.82;;
76261;Laerm;65076;52.362;6.588;2023-01-16T12:38:11;58.63;45.49;81.75;;
76261;Laerm;65076;52.362;6.588;2023-01-16T12:41:16;60.94;44.18;80.62;;
76261;Laerm;65076;52.362;6.588;2023-01-16T12:44:26;59.48;44.84;82.00;;
76261;Laerm;65076;52.362;6.588;2023-01-16T12:47:23;56.39;45.42;69.21;;
76261;Laerm;65076;52.362;6.588;2023-01-16T12:50:10;59.15;43.61;80.56;;
76261;Laerm;65076;52.362;6.588;2023-01-16T12:52:56;58.28;43.21;79.34;;
76261;Laerm;65076;52.362;6.588;2023-01-16T12:55:41;59.19;46.48;81.22;;
76261;Laerm;65076;52.362;6.588;2023-01-16T12:58:37;56.83;45.33;74.06;;
76261;Laerm;65076;52.362;6.588;2023-01-16T13:01:13;59.10;47.05;77.07;;
76261;Laerm;65076;52.362;6.588;2023-01-16T13:03:50;57.21;46.04;67.88;;
76261;Laerm;65076;52.362;6.588;2023-01-16T13:06:35;55.86;45.43;76.61;;
76261;Laerm;65076;52.362;6.588;2023-01-16T13:09:15;60.28;46.31;81.04;;
76261;Laerm;65076;52.362;6.588;2023-01-16T13:11:59;61.44;45.49;76.47;;
76261;Laerm;65076;52.362;6.588;2023-01-16T13:14:54;59.07;46.81;79.02;;
76261;Laerm;65076;52.362;6.588;2023-01-16T13:17:31;56.92;45.81;77.49;;
76261;Laerm;65076;52.362;6.588;2023-01-16T13:20:04;57.94;44.89;76.29;;
76261;Laerm;65076;52.362;6.588;2023-01-16T13:22:43;62.34;46.33;78.29;;
76261;Laerm;65076;52.362;6.588;2023-01-16T13:25:20;58.13;46.06;80.03;;
76261;Laerm;65076;52.362;6.588;2023-01-16T13:27:55;59.21;45.64;76.57;;
76261;Laerm;65076;52.362;6.588;2023-01-16T13:30:27;56.13;45.71;78.58;;
76261;Laerm;65076;52.362;6.588;2023-01-16T13:32:59;57.84;46.68;76.16;;
76261;Laerm;65076;52.362;6.588;2023-01-16T13:35:38;58.19;46.54;71.67;;
76261;Laerm;65076;52.362;6.588;2023-01-16T13:38:44;63.07;46.41;79.15;;
76261;Laerm;65076;52.362;6.588;2023-01-16T13:41:23;60.15;45.08;75.12;;
76261;Laerm;65076;52.362;6.588;2023-01-16T13:43:59;55.45;44.66;76.05;;
76261;Laerm;65076;52.362;6.588;2023-01-16T13:46:50;57.16;43.98;69.51;;
76261;Laerm;65076;52.362;6.588;2023-01-16T13:49:41;55.67;44.63;76.40;;
76261;Laerm;65076;52.362;6.588;2023-01-16T13:52:26;65.15;44.02;83.94;;
76261;Laerm;65076;52.362;6.588;2023-01-16T13:54:58;68.79;45.60;85.42;;
76261;Laerm;65076;52.362;6.588;2023-01-16T13:57:28;56.91;44.80;80.40;;
76261;Laerm;65076;52.362;6.588;2023-01-16T13:59:58;57.51;47.10;78.61;;
76261;Laerm;65076;52.362;6.588;2023-01-16T14:02:42;57.84;44.88;67.17;;
76261;Laerm;65076;52.362;6.588;2023-01-16T14:05:42;57.50;46.23;70.16;;
76261;Laerm;65076;52.362;6.588;2023-01-16T14:08:29;53.64;43.36;80.04;;
76261;Laerm;65076;52.362;6.588;2023-01-16T14:12:00;61.85;44.22;80.90;;
76261;Laerm;65076;52.362;6.588;2023-01-16T14:14:33;54.48;42.29;65.01;;
76261;Laerm;65076;52.362;6.588;2023-01-16T14:17:21;55.44;42.74;77.57;;
76261;Laerm;65076;52.362;6.588;2023-01-16T14:19:57;68.84;46.40;79.92;;
76261;Laerm;65076;52.362;6.588;2023-01-16T14:22:35;56.09;46.02;72.34;;
76261;Laerm;65076;52.362;6.588;2023-01-16T14:25:22;59.89;44.39;69.55;;
76261;Laerm;65076;52.362;6.588;2023-01-16T14:27:53;59.87;44.82;68.28;;
76261;Laerm;65076;52.362;6.588;2023-01-16T14:30:28;58.41;45.94;73.33;;
76261;Laerm;65076;52.362;6.588;2023-01-16T14:32:59;61.99;45.91;75.63;;
76261;Laerm;65076;52.362;6.588;2023-01-16T14:35:44;58.73;46.55;76.12;;